sensor_id;sensor_type;location;lat;lon;timestamp;temperature;humidity
13433;DHT22;6789;47.678;9.158;2023-05-16T00:02:39;12.60;99.90
13433;DHT22;6789;47.678;9.158;2023-05-16T00:07:33;12.50;99.90
13433;DHT22;6789;47.678;9.158;2023-05-16T00:12:25;12.50;99.90
13433;DHT22;6789;47.678;9.158;2023-05-16T00:17:18;12.50;99.90
13433;DHT22;6789;47.678;9.158;2023-05-16T00:22:10;12.60;99.90
13433;DHT22;6789;47.678;9.158;2023-05-16T00:27:02;12.60;99.90
13433;DHT22;6789;47.678;9.158;2023-05-16T00:31:54;12.60;99.90
13433;DHT22;6789;47.678;9.158;2023-05-16T00:36:46;12.50;99.90
13433;DHT22;6789;47.678;9.158;2023-05-16T00:41:38;12.50;99.90
13433;DHT22;6789;47.678;9.158;2023-05-16T00:46:30;12.50;99.90
13433;DHT22;6789;47.678;9.158;2023-05-16T00:51:22;12.40;99.90
13433;DHT22;6789;47.678;9.158;2023-05-16T00:56:14;12.30;99.90
13433;DHT22;6789;47.678;9.158;2023-05-16T01:01:08;12.20;99.90
13433;DHT22;6789;47.678;9.158;2023-05-16T01:05:59;12.10;99.90
13433;DHT22;6789;47.678;9.158;2023-05-16T01:11:05;12.10;99.90
13433;DHT22;6789;47.678;9.158;2023-05-16T01:16:11;12.10;99.90
13433;DHT22;6789;47.678;9.158;2023-05-16T01:21:48;12.10;99.90
13433;DHT22;6789;47.678;9.158;2023-05-16T01:26:45;12.10;99.90
13433;DHT22;6789;47.678;9.158;2023-05-16T01:31:37;12.30;99.90
13433;DHT22;6789;47.678;9.158;2023-05-16T01:36:33;12.30;99.90
13433;DHT22;6789;47.678;9.158;2023-05-16T01:42:09;12.20;99.90
13433;DHT22;6789;47.678;9.158;2023-05-16T01:47:01;12.20;99.90
13433;DHT22;6789;47.678;9.158;2023-05-16T01:52:16;12.20;99.90
13433;DHT22;6789;47.678;9.158;2023-05-16T01:57:13;12.00;99.90
13433;DHT22;6789;47.678;9.158;2023-05-16T02:02:06;12.10;99.90
13433;DHT22;6789;47.678;9.158;2023-05-16T02:06:58;12.00;99.90
13433;DHT22;6789;47.678;9.158;2023-05-16T02:11:51;12.00;99.90
13433;DHT22;6789;47.678;9.158;2023-05-16T02:16:43;12.00;99.90
13433;DHT22;6789;47.678;9.158;2023-05-16T02:21:35;11.90;99.90
13433;DHT22;6789;47.678;9.158;2023-05-16T02:26:26;12.10;99.90
13433;DHT22;6789;47.678;9.158;2023-05-16T02:31:31;12.20;99.90
13433;DHT22;6789;47.678;9.158;2023-05-16T02:36:25;12.20;99.90
13433;DHT22;6789;47.678;9.158;2023-05-16T02:41:17;12.10;99.90
13433;DHT22;6789;47.678;9.158;2023-05-16T02:46:26;12.00;99.90
13433;DHT22;6789;47.678;9.158;2023-05-16T02:51:21;12.00;99.90
13433;DHT22;6789;47.678;9.158;2023-05-16T02:56:14;11.80;99.90
13433;DHT22;6789;47.678;9.158;2023-05-16T03:01:06;11.70;99.90
13433;DHT22;6789;47.678;9.158;2023-05-16T03:05:58;11.60;99.90
13433;DHT22;6789;47.678;9.158;2023-05-16T03:10:50;11.40;99.90
13433;DHT22;6789;47.678;9.158;2023-05-16T03:15:42;11.30;99.90
13433;DHT22;6789;47.678;9.158;2023-05-16T03:20:33;11.40;99.90
13433;DHT22;6789;47.678;9.158;2023-05-16T03:25:25;11.40;99.90
13433;DHT22;6789;47.678;9.158;2023-05-16T03:30:18;11.40;99.90
13433;DHT22;6789;47.678;9.158;2023-05-16T03:35:10;11.60;99.90
13433;DHT22;6789;47.678;9.158;2023-05-16T03:40:02;11.70;99.90
13433;DHT22;6789;47.678;9.158;2023-05-16T03:44:57;11.60;99.90
13433;DHT22;6789;47.678;9.158;2023-05-16T03:49:49;11.70;99.90
13433;DHT22;6789;47.678;9.158;2023-05-16T03:54:41;11.60;99.90
13433;DHT22;6789;47.678;9.158;2023-05-16T03:59:32;11.50;99.90
13433;DHT22;6789;47.678;9.158;2023-05-16T04:04:24;11.50;99.90
13433;DHT22;6789;47.678;9.158;2023-05-16T04:09:16;11.40;99.90
13433;DHT22;6789;47.678;9.158;2023-05-16T04:14:09;11.40;99.90
13433;DHT22;6789;47.678;9.158;2023-05-16T04:19:00;11.40;99.90
13433;DHT22;6789;47.678;9.158;2023-05-16T04:23:53;11.50;99.90
13433;DHT22;6789;47.678;9.158;2023-05-16T04:28:45;11.60;99.90
13433;DHT22;6789;47.678;9.158;2023-05-16T04:33:36;11.60;99.90
13433;DHT22;6789;47.678;9.158;2023-05-16T04:38:28;11.60;99.90
13433;DHT22;6789;47.678;9.158;2023-05-16T04:43:20;11.60;99.90
13433;DHT22;6789;47.678;9.158;2023-05-16T04:48:12;11.60;99.90
13433;DHT22;6789;47.678;9.158;2023-05-16T04:53:04;11.80;99.90
13433;DHT22;6789;47.678;9.158;2023-05-16T04:57:55;11.90;99.90
13433;DHT22;6789;47.678;9.158;2023-05-16T05:02:47;12.10;99.90
13433;DHT22;6789;47.678;9.158;2023-05-16T05:07:39;12.40;99.90
13433;DHT22;6789;47.678;9.158;2023-05-16T05:12:31;12.40;99.90
13433;DHT22;6789;47.678;9.158;2023-05-16T05:17:23;12.40;99.90
13433;DHT22;6789;47.678;9.158;2023-05-16T05:22:14;12.50;99.90
13433;DHT22;6789;47.678;9.158;2023-05-16T05:27:06;12.50;99.90
13433;DHT22;6789;47.678;9.158;2023-05-16T05:31:58;12.60;99.90
13433;DHT22;6789;47.678;9.158;2023-05-16T05:36:50;12.50;99.90
13433;DHT22;6789;47.678;9.158;2023-05-16T05:41:41;12.60;99.90
13433;DHT22;6789;47.678;9.158;2023-05-16T05:46:33;12.70;99.90
13433;DHT22;6789;47.678;9.158;2023-05-16T05:51:26;12.80;99.90
13433;DHT22;6789;47.678;9.158;2023-05-16T05:56:18;12.90;99.90
13433;DHT22;6789;47.678;9.158;2023-05-16T06:01:11;13.10;99.90
13433;DHT22;6789;47.678;9.158;2023-05-16T06:06:03;12.90;99.90
13433;DHT22;6789;47.678;9.158;2023-05-16T06:10:55;12.90;99.90
13433;DHT22;6789;47.678;9.158;2023-05-16T06:15:53;13.00;99.90
13433;DHT22;6789;47.678;9.158;2023-05-16T06:20:45;13.10;99.90
13433;DHT22;6789;47.678;9.158;2023-05-16T06:25:37;13.30;99.90
13433;DHT22;6789;47.678;9.158;2023-05-16T06:30:29;13.60;99.90
13433;DHT22;6789;47.678;9.158;2023-05-16T06:35:21;13.80;99.90
13433;DHT22;6789;47.678;9.158;2023-05-16T06:40:13;14.10;99.90
13433;DHT22;6789;47.678;9.158;2023-05-16T06:45:05;14.70;99.90
13433;DHT22;6789;47.678;9.158;2023-05-16T06:49:58;14.90;99.90
13433;DHT22;6789;47.678;9.158;2023-05-16T06:54:49;14.90;99.90
13433;DHT22;6789;47.678;9.158;2023-05-16T06:59:42;14.60;99.90
13433;DHT22;6789;47.678;9.158;2023-05-16T07:04:34;14.60;99.90
13433;DHT22;6789;47.678;9.158;2023-05-16T07:09:28;14.90;99.90
13433;DHT22;6789;47.678;9.158;2023-05-16T07:14:19;15.20;99.90
13433;DHT22;6789;47.678;9.158;2023-05-16T07:19:11;15.50;99.90
13433;DHT22;6789;47.678;9.158;2023-05-16T07:24:03;15.60;99.90
13433;DHT22;6789;47.678;9.158;2023-05-16T07:28:56;15.30;99.90
13433;DHT22;6789;47.678;9.158;2023-05-16T07:33:48;15.60;99.90
13433;DHT22;6789;47.678;9.158;2023-05-16T07:38:41;15.70;99.90
13433;DHT22;6789;47.678;9.158;2023-05-16T07:43:33;15.50;99.90
13433;DHT22;6789;47.678;9.158;2023-05-16T07:48:25;15.50;99.90
13433;DHT22;6789;47.678;9.158;2023-05-16T07:53:17;15.60;99.90
13433;DHT22;6789;47.678;9.158;2023-05-16T07:58:09;16.00;99.90
13433;DHT22;6789;47.678;9.158;2023-05-16T08:03:01;15.60;99.90
13433;DHT22;6789;47.678;9.158;2023-05-16T08:07:54;15.90;99.90
13433;DHT22;6789;47.678;9.158;2023-05-16T08:12:45;15.80;99.90
13433;DHT22;6789;47.678;9.158;2023-05-16T08:17:38;15.70;99.90
13433;DHT22;6789;47.678;9.158;2023-05-16T08:22:31;15.80;99.90
13433;DHT22;6789;47.678;9.158;2023-05-16T08:27:23;15.40;99.90
13433;DHT22;6789;47.678;9.158;2023-05-16T08:32:15;15.50;99.90
13433;DHT22;6789;47.678;9.158;2023-05-16T08:37:07;15.70;99.90
13433;DHT22;6789;47.678;9.158;2023-05-16T08:41:59;15.70;99.90
13433;DHT22;6789;47.678;9.158;2023-05-16T08:46:52;15.60;99.90
13433;DHT22;6789;47.678;9.158;2023-05-16T08:51:48;15.50;99.90
13433;DHT22;6789;47.678;9.158;2023-05-16T08:56:44;15.30;99.90
13433;DHT22;6789;47.678;9.158;2023-05-16T09:01:36;15.30;99.90
13433;DHT22;6789;47.678;9.158;2023-05-16T09:06:28;15.30;99.90
13433;DHT22;6789;47.678;9.158;2023-05-16T09:11:20;15.60;99.90
13433;DHT22;6789;47.678;9.158;2023-05-16T09:16:14;15.50;99.90
13433;DHT22;6789;47.678;9.158;2023-05-16T09:21:07;15.50;99.90
13433;DHT22;6789;47.678;9.158;2023-05-16T09:26:01;15.10;99.90
13433;DHT22;6789;47.678;9.158;2023-05-16T09:30:55;15.10;99.90
13433;DHT22;6789;47.678;9.158;2023-05-16T09:35:57;15.00;99.90
13433;DHT22;6789;47.678;9.158;2023-05-16T09:40:50;14.90;99.90
13433;DHT22;6789;47.678;9.158;2023-05-16T09:45:58;14.90;99.90
13433;DHT22;6789;47.678;9.158;2023-05-16T09:51:41;14.50;99.90
13433;DHT22;6789;47.678;9.158;2023-05-16T09:57:38;14.10;99.90
13433;DHT22;6789;47.678;9.158;2023-05-16T10:03:02;14.20;99.90
13433;DHT22;6789;47.678;9.158;2023-05-16T10:08:09;13.80;99.90
13433;DHT22;6789;47.678;9.158;2023-05-16T10:13:34;13.70;99.90
13433;DHT22;6789;47.678;9.158;2023-05-16T10:18:45;13.60;99.90
13433;DHT22;6789;47.678;9.158;2023-05-16T10:23:51;13.50;99.90
13433;DHT22;6789;47.678;9.158;2023-05-16T10:29:20;13.20;99.90
13433;DHT22;6789;47.678;9.158;2023-05-16T10:35:04;13.00;99.90
13433;DHT22;6789;47.678;9.158;2023-05-16T10:40:12;12.90;99.90
13433;DHT22;6789;47.678;9.158;2023-05-16T10:45:19;13.00;99.90
13433;DHT22;6789;47.678;9.158;2023-05-16T10:50:43;13.10;99.90
13433;DHT22;6789;47.678;9.158;2023-05-16T11:12:00;13.00;99.90
13433;DHT22;6789;47.678;9.158;2023-05-16T11:17:22;12.90;99.90
13433;DHT22;6789;47.678;9.158;2023-05-16T11:27:58;13.00;99.90
13433;DHT22;6789;47.678;9.158;2023-05-16T11:34:03;13.10;99.90
13433;DHT22;6789;47.678;9.158;2023-05-16T11:40:02;13.10;99.90
13433;DHT22;6789;47.678;9.158;2023-05-16T11:45:20;13.20;99.90
13433;DHT22;6789;47.678;9.158;2023-05-16T11:50:49;13.40;99.90
13433;DHT22;6789;47.678;9.158;2023-05-16T11:56:08;13.40;99.90
13433;DHT22;6789;47.678;9.158;2023-05-16T12:01:14;13.30;99.90
13433;DHT22;6789;47.678;9.158;2023-05-16T12:06:22;13.40;99.90
13433;DHT22;6789;47.678;9.158;2023-05-16T12:11:31;13.50;99.90
13433;DHT22;6789;47.678;9.158;2023-05-16T12:16:31;13.50;99.90
13433;DHT22;6789;47.678;9.158;2023-05-16T12:21:59;13.70;99.90
13433;DHT22;6789;47.678;9.158;2023-05-16T12:27:26;13.80;99.90
13433;DHT22;6789;47.678;9.158;2023-05-16T12:32:36;14.20;99.90
13433;DHT22;6789;47.678;9.158;2023-05-16T12:37:42;14.50;99.90
13433;DHT22;6789;47.678;9.158;2023-05-16T12:42:50;14.60;99.90
13433;DHT22;6789;47.678;9.158;2023-05-16T12:48:19;14.60;99.90
13433;DHT22;6789;47.678;9.158;2023-05-16T12:53:47;14.50;99.90
13433;DHT22;6789;47.678;9.158;2023-05-16T12:58:59;14.50;99.90
13433;DHT22;6789;47.678;9.158;2023-05-16T13:04:08;14.50;99.90
13433;DHT22;6789;47.678;9.158;2023-05-16T13:09:19;14.50;99.90
13433;DHT22;6789;47.678;9.158;2023-05-16T13:14:25;14.50;99.90
13433;DHT22;6789;47.678;9.158;2023-05-16T13:19:32;14.30;99.90
13433;DHT22;6789;47.678;9.158;2023-05-16T13:24:39;14.60;99.90
13433;DHT22;6789;47.678;9.158;2023-05-16T13:29:45;14.70;99.90
13433;DHT22;6789;47.678;9.158;2023-05-16T13:34:52;14.70;99.90
13433;DHT22;6789;47.678;9.158;2023-05-16T13:39:59;14.80;99.90
13433;DHT22;6789;47.678;9.158;2023-05-16T13:45:05;14.60;99.90
13433;DHT22;6789;47.678;9.158;2023-05-16T13:50:15;14.60;99.90
13433;DHT22;6789;47.678;9.158;2023-05-16T13:55:22;14.40;99.90
13433;DHT22;6789;47.678;9.158;2023-05-16T14:00:38;14.20;99.90
13433;DHT22;6789;47.678;9.158;2023-05-16T14:05:50;14.20;99.90
13433;DHT22;6789;47.678;9.158;2023-05-16T14:10:58;13.90;99.90
13433;DHT22;6789;47.678;9.158;2023-05-16T14:16:04;13.90;99.90
13433;DHT22;6789;47.678;9.158;2023-05-16T14:21:30;13.90;99.90
13433;DHT22;6789;47.678;9.158;2023-05-16T14:31:54;13.80;99.90
13433;DHT22;6789;47.678;9.158;2023-05-16T14:37:18;13.70;99.90
13433;DHT22;6789;47.678;9.158;2023-05-16T14:42:56;13.90;99.90
13433;DHT22;6789;47.678;9.158;2023-05-16T14:48:23;14.00;99.90
13433;DHT22;6789;47.678;9.158;2023-05-16T14:53:47;13.80;99.90
13433;DHT22;6789;47.678;9.158;2023-05-16T14:58:52;14.10;99.90
13433;DHT22;6789;47.678;9.158;2023-05-16T15:04:07;14.20;99.90
13433;DHT22;6789;47.678;9.158;2023-05-16T15:09:15;14.10;99.90
13433;DHT22;6789;47.678;9.158;2023-05-16T15:33:01;13.30;99.90
13433;DHT22;6789;47.678;9.158;2023-05-16T15:38:07;13.20;99.90
13433;DHT22;6789;47.678;9.158;2023-05-16T15:43:14;13.20;99.90
13433;DHT22;6789;47.678;9.158;2023-05-16T15:48:20;13.20;99.90
13433;DHT22;6789;47.678;9.158;2023-05-16T15:53:28;13.10;99.90
13433;DHT22;6789;47.678;9.158;2023-05-16T15:58:38;13.10;99.90
13433;DHT22;6789;47.678;9.158;2023-05-16T16:03:53;13.20;99.90
13433;DHT22;6789;47.678;9.158;2023-05-16T16:08:59;13.20;99.90
13433;DHT22;6789;47.678;9.158;2023-05-16T16:14:32;13.00;99.90
13433;DHT22;6789;47.678;9.158;2023-05-16T16:19:39;13.10;99.90
13433;DHT22;6789;47.678;9.158;2023-05-16T16:24:49;13.00;99.90
13433;DHT22;6789;47.678;9.158;2023-05-16T16:29:55;13.00;99.90
13433;DHT22;6789;47.678;9.158;2023-05-16T16:35:02;13.00;99.90
13433;DHT22;6789;47.678;9.158;2023-05-16T16:40:10;13.00;99.90
13433;DHT22;6789;47.678;9.158;2023-05-16T16:45:25;12.80;99.90
13433;DHT22;6789;47.678;9.158;2023-05-16T16:50:31;12.60;99.90
13433;DHT22;6789;47.678;9.158;2023-05-16T16:55:39;12.30;99.90
13433;DHT22;6789;47.678;9.158;2023-05-16T17:00:44;12.30;99.90
13433;DHT22;6789;47.678;9.158;2023-05-16T17:06:08;12.20;99.90
13433;DHT22;6789;47.678;9.158;2023-05-16T17:11:24;12.20;99.90
13433;DHT22;6789;47.678;9.158;2023-05-16T17:16:23;12.20;99.90
13433;DHT22;6789;47.678;9.158;2023-05-16T17:21:29;12.10;99.90
13433;DHT22;6789;47.678;9.158;2023-05-16T17:26:40;11.90;99.90
13433;DHT22;6789;47.678;9.158;2023-05-16T17:32:03;11.80;99.90
13433;DHT22;6789;47.678;9.158;2023-05-16T17:37:21;11.80;99.90
13433;DHT22;6789;47.678;9.158;2023-05-16T17:42:27;11.70;99.90
13433;DHT22;6789;47.678;9.158;2023-05-16T17:47:33;11.70;99.90
13433;DHT22;6789;47.678;9.158;2023-05-16T17:52:40;11.60;99.90
13433;DHT22;6789;47.678;9.158;2023-05-16T17:57:51;11.50;99.90
13433;DHT22;6789;47.678;9.158;2023-05-16T18:02:47;11.50;99.90
13433;DHT22;6789;47.678;9.158;2023-05-16T18:07:57;11.50;99.90
13433;DHT22;6789;47.678;9.158;2023-05-16T18:13:14;11.40;99.90
13433;DHT22;6789;47.678;9.158;2023-05-16T18:18:23;11.40;99.90
13433;DHT22;6789;47.678;9.158;2023-05-16T18:23:19;11.30;99.90
13433;DHT22;6789;47.678;9.158;2023-05-16T18:28:24;11.30;99.90
13433;DHT22;6789;47.678;9.158;2023-05-16T18:33:30;11.30;99.90
13433;DHT22;6789;47.678;9.158;2023-05-16T18:38:36;11.30;99.90
13433;DHT22;6789;47.678;9.158;2023-05-16T18:43:44;11.30;99.90
13433;DHT22;6789;47.678;9.158;2023-05-16T18:48:49;11.20;99.90
13433;DHT22;6789;47.678;9.158;2023-05-16T18:53:57;11.20;99.90
13433;DHT22;6789;47.678;9.158;2023-05-16T18:59:04;11.20;99.90
13433;DHT22;6789;47.678;9.158;2023-05-16T19:04:20;11.20;99.90
13433;DHT22;6789;47.678;9.158;2023-05-16T19:09:26;11.10;99.90
13433;DHT22;6789;47.678;9.158;2023-05-16T19:14:33;11.20;99.90
13433;DHT22;6789;47.678;9.158;2023-05-16T19:19:40;11.20;99.90
13433;DHT22;6789;47.678;9.158;2023-05-16T19:24:45;11.30;99.90
13433;DHT22;6789;47.678;9.158;2023-05-16T19:29:51;11.20;99.90
13433;DHT22;6789;47.678;9.158;2023-05-16T19:34:59;11.30;99.90
13433;DHT22;6789;47.678;9.158;2023-05-16T19:40:05;11.30;99.90
13433;DHT22;6789;47.678;9.158;2023-05-16T19:45:11;11.30;99.90
13433;DHT22;6789;47.678;9.158;2023-05-16T19:50:05;11.20;99.90
13433;DHT22;6789;47.678;9.158;2023-05-16T19:55:13;11.30;99.90
13433;DHT22;6789;47.678;9.158;2023-05-16T20:00:20;11.30;99.90
13433;DHT22;6789;47.678;9.158;2023-05-16T20:05:13;11.40;99.90
13433;DHT22;6789;47.678;9.158;2023-05-16T20:10:23;11.30;99.90
13433;DHT22;6789;47.678;9.158;2023-05-16T20:15:29;11.30;99.90
13433;DHT22;6789;47.678;9.158;2023-05-16T20:20:35;11.40;99.90
13433;DHT22;6789;47.678;9.158;2023-05-16T20:25:29;11.30;99.90
13433;DHT22;6789;47.678;9.158;2023-05-16T20:30:36;11.30;99.90
13433;DHT22;6789;47.678;9.158;2023-05-16T20:35:42;11.40;99.90
13433;DHT22;6789;47.678;9.158;2023-05-16T20:40:48;11.30;99.90
13433;DHT22;6789;47.678;9.158;2023-05-16T20:45:54;11.30;99.90
13433;DHT22;6789;47.678;9.158;2023-05-16T20:51:01;11.20;99.90
13433;DHT22;6789;47.678;9.158;2023-05-16T20:56:00;11.40;99.90
13433;DHT22;6789;47.678;9.158;2023-05-16T21:01:06;11.40;99.90
13433;DHT22;6789;47.678;9.158;2023-05-16T21:06:13;11.30;99.90
13433;DHT22;6789;47.678;9.158;2023-05-16T21:11:12;11.40;99.90
13433;DHT22;6789;47.678;9.158;2023-05-16T21:16:18;11.40;99.90
13433;DHT22;6789;47.678;9.158;2023-05-16T21:21:24;11.30;99.90
13433;DHT22;6789;47.678;9.158;2023-05-16T21:26:32;11.40;99.90
13433;DHT22;6789;47.678;9.158;2023-05-16T21:31:27;11.40;99.90
13433;DHT22;6789;47.678;9.158;2023-05-16T21:36:33;11.30;99.90
13433;DHT22;6789;47.678;9.158;2023-05-16T21:41:38;11.30;99.90
13433;DHT22;6789;47.678;9.158;2023-05-16T21:46:46;11.30;99.90
13433;DHT22;6789;47.678;9.158;2023-05-16T21:51:53;11.30;99.90
13433;DHT22;6789;47.678;9.158;2023-05-16T21:56:59;11.20;99.90
13433;DHT22;6789;47.678;9.158;2023-05-16T22:14:20;11.10;99.90
13433;DHT22;6789;47.678;9.158;2023-05-16T22:20:35;11.00;99.90
13433;DHT22;6789;47.678;9.158;2023-05-16T22:42:01;10.90;99.90
13433;DHT22;6789;47.678;9.158;2023-05-16T22:47:51;10.80;99.90
13433;DHT22;6789;47.678;9.158;2023-05-16T22:53:29;10.90;99.90
13433;DHT22;6789;47.678;9.158;2023-05-16T22:59:35;10.90;99.90
13433;DHT22;6789;47.678;9.158;2023-05-16T23:38:08;10.70;99.90
13433;DHT22;6789;47.678;9.158;2023-05-16T23:48:48;10.70;99.90
13433;DHT22;6789;47.678;9.158;2023-05-16T23:59:52;10.60;99.90
